Wetterdaten: Woche 27.12.10 - 02.01.11 (KW52)
Datum Zeit Temp. Innen Temp. Aussen UV X Diff Temp. Feuchte Inne Feuchte Auss Sonnenschein Luftdruck Regen ab 0,1 Wind Sonnenschein T Regendauer Windben
27.12.2010 00:00 9,1 C 1,1 C 0,0 UV-I 0,0 C 55 % 95 % 0 % 1024,9 hPa 0,0 l/m 7,3 km/h (2 Bft) 0,00 h 0,00 h 8,9 km/h (2 Bft)
27.12.2010 01:00 9,1 C 1,0 C 0,0 UV-I 0,0 C 55 % 95 % 0 % 1024,4 hPa 0,0 l/m 7,8 km/h (2 Bft) 0,00 h 0,00 h 8,0 km/h (2 Bft)
27.12.2010 02:00 9,2 C 0,8 C 0,0 UV-I 0,0 C 55 % 95 % 0 % 1024,5 hPa 0,0 l/m 7,8 km/h (2 Bft) 0,00 h 0,00 h 7,8 km/h (2 Bft)
27.12.2010 03:00 9,1 C 0,6 C 0,0 UV-I 0,0 C 54 % 95 % 0 % 1024,5 hPa 0,0 l/m 6,4 km/h (2 Bft) 0,00 h 0,00 h 7,3 km/h (2 Bft)
27.12.2010 04:00 9,1 C 0,4 C 0,0 UV-I 0,0 C 54 % 95 % 0 % 1024,3 hPa 0,1 l/m 6,0 km/h (2 Bft) 0,00 h 0,00 h 6,8 km/h (2 Bft)
27.12.2010 05:00 9,1 C 0,3 C 0,0 UV-I 0,0 C 54 % 95 % 0 % 1023,9 hPa 0,0 l/m 6,2 km/h (2 Bft) 0,00 h 0,00 h 7,1 km/h (2 Bft)
27.12.2010 06:00 9,2 C -0,1 C 0,0 UV-I 0,0 C 53 % 94 % 0 % 1023,8 hPa 0,0 l/m 6,8 km/h (2 Bft) 0,00 h 0,00 h 7,8 km/h (2 Bft)
27.12.2010 07:00 9,1 C -0,3 C 0,0 UV-I 0,0 C 52 % 94 % 0 % 1023,5 hPa 0,0 l/m 5,7 km/h (1 Bft) 0,00 h 0,00 h 6,1 km/h (2 Bft)
27.12.2010 08:00 9,1 C -0,3 C 0,0 UV-I 0,0 C 52 % 94 % 0 % 1023,7 hPa 0,0 l/m 2,7 km/h (1 Bft) 0,00 h 0,00 h 3,7 km/h (1 Bft)
27.12.2010 09:00 9,2 C -0,2 C 0,0 UV-I 0,0 C 52 % 94 % 0 % 1023,8 hPa 0,1 l/m 1,3 km/h (1 Bft) 0,00 h 0,00 h 1,7 km/h (1 Bft)
27.12.2010 10:00 9,3 C 0,0 C 0,0 UV-I 0,0 C 51 % 93 % 0 % 1023,8 hPa 0,0 l/m 1,4 km/h (1 Bft) 0,00 h 0,00 h 1,8 km/h (1 Bft)
27.12.2010 11:00 9,6 C 0,4 C 0,2 UV-I 0,2 C 51 % 93 % 7 % 1023,9 hPa 0,0 l/m 1,6 km/h (1 Bft) 0,00 h 0,00 h 1,4 km/h (1 Bft)
27.12.2010 12:00 9,8 C 0,8 C 0,7 UV-I 0,4 C 50 % 92 % 13 % 1023,8 hPa 0,1 l/m 1,3 km/h (1 Bft) 0,00 h 0,00 h 0,9 km/h (0 Bft)
27.12.2010 13:00 9,9 C 1,1 C 0,7 UV-I 0,2 C 49 % 90 % 4 % 1023,6 hPa 0,1 l/m 1,1 km/h (1 Bft) 0,00 h 0,00 h 1,5 km/h (1 Bft)
27.12.2010 14:00 10,0 C 1,2 C 0,5 UV-I 0,0 C 49 % 90 % 0 % 1022,9 hPa 0,1 l/m 5,3 km/h (1 Bft) 0,00 h 0,00 h 6,0 km/h (2 Bft)
27.12.2010 15:00 10,1 C 1,0 C 0,2 UV-I 0,0 C 50 % 90 % 0 % 1022,4 hPa 0,1 l/m 4,9 km/h (1 Bft) 0,00 h 0,00 h 5,7 km/h (1 Bft)
27.12.2010 16:00 10,0 C 0,6 C 0,0 UV-I 0,0 C 50 % 90 % 0 % 1022,1 hPa 0,0 l/m 5,7 km/h (1 Bft) 0,00 h 0,00 h 6,0 km/h (2 Bft)
27.12.2010 17:00 9,9 C 0,3 C 0,0 UV-I 0,0 C 50 % 91 % 0 % 1021,9 hPa 0,1 l/m 6,3 km/h (2 Bft) 0,00 h 0,00 h 7,2 km/h (2 Bft)
27.12.2010 18:00 9,8 C -0,1 C 0,0 UV-I 0,0 C 50 % 91 % 0 % 1021,8 hPa 0,0 l/m 7,8 km/h (2 Bft) 0,00 h 0,00 h 8,9 km/h (2 Bft)
27.12.2010 19:00 9,6 C -0,2 C 0,0 UV-I 0,0 C 50 % 91 % 0 % 1021,8 hPa 0,0 l/m 7,0 km/h (2 Bft) 0,00 h 0,00 h 7,1 km/h (2 Bft)
27.12.2010 20:00 9,6 C -0,5 C 0,0 UV-I 0,0 C 50 % 90 % 0 % 1021,4 hPa 0,0 l/m 5,0 km/h (1 Bft) 0,00 h 0,00 h 5,2 km/h (1 Bft)
27.12.2010 21:00 9,6 C -0,4 C 0,0 UV-I 0,0 C 50 % 90 % 0 % 1021,3 hPa 0,0 l/m 4,3 km/h (1 Bft) 0,00 h 0,00 h 5,1 km/h (1 Bft)
27.12.2010 22:00 9,6 C -0,3 C 0,0 UV-I 0,0 C 50 % 90 % 0 % 1020,6 hPa 0,0 l/m 6,0 km/h (2 Bft) 0,00 h 0,00 h 7,0 km/h (2 Bft)
27.12.2010 23:00 9,5 C -0,5 C 0,0 UV-I 0,0 C 49 % 89 % 0 % 1020,2 hPa 0,0 l/m 6,1 km/h (2 Bft) 0,00 h 0,00 h 6,5 km/h (2 Bft)
28.12.2010 00:00 9,5 C -0,5 C 0,0 UV-I 0,0 C 49 % 89 % 0 % 1020,0 hPa 0,0 l/m 6,7 km/h (2 Bft) 0,00 h 0,00 h 8,5 km/h (2 Bft)
28.12.2010 01:00 9,4 C -0,5 C 0,0 UV-I 0,0 C 49 % 89 % 0 % 1019,7 hPa 0,0 l/m 5,7 km/h (1 Bft) 0,00 h 0,00 h 6,0 km/h (2 Bft)
28.12.2010 02:00 9,4 C -0,4 C 0,0 UV-I 0,0 C 49 % 89 % 0 % 1019,5 hPa 0,0 l/m 5,8 km/h (2 Bft) 0,00 h 0,00 h 6,9 km/h (2 Bft)
28.12.2010 03:00 9,4 C -0,3 C 0,0 UV-I 0,0 C 48 % 88 % 0 % 1019,5 hPa 0,0 l/m 8,0 km/h (2 Bft) 0,00 h 0,00 h 9,0 km/h (2 Bft)
28.12.2010 04:00 9,4 C -0,1 C 0,0 UV-I 0,0 C 48 % 87 % 0 % 1019,5 hPa 0,0 l/m 6,1 km/h (2 Bft) 0,00 h 0,00 h 8,0 km/h (2 Bft)
28.12.2010 05:00 9,4 C -0,1 C 0,0 UV-I 0,0 C 48 % 86 % 0 % 1018,5 hPa 0,0 l/m 6,8 km/h (2 Bft) 0,00 h 0,00 h 7,0 km/h (2 Bft)
28.12.2010 06:00 9,3 C -0,1 C 0,0 UV-I 0,0 C 48 % 85 % 0 % 1018,3 hPa 0,0 l/m 5,1 km/h (1 Bft) 0,00 h 0,00 h 6,4 km/h (2 Bft)
28.12.2010 07:00 9,2 C -0,1 C 0,0 UV-I 0,0 C 48 % 85 % 0 % 1018,2 hPa 0,0 l/m 5,8 km/h (2 Bft) 0,00 h 0,00 h 6,7 km/h (2 Bft)
28.12.2010 08:00 9,3 C -0,2 C 0,0 UV-I 0,0 C 48 % 85 % 0 % 1018,6 hPa 0,0 l/m 3,5 km/h (1 Bft) 0,00 h 0,00 h 4,4 km/h (1 Bft)
28.12.2010 09:00 9,4 C -0,2 C 0,0 UV-I 0,0 C 48 % 85 % 0 % 1018,9 hPa 0,0 l/m 4,3 km/h (1 Bft) 0,00 h 0,00 h 4,9 km/h (1 Bft)
28.12.2010 10:00 9,6 C 0,1 C 0,0 UV-I 0,0 C 48 % 85 % 0 % 1019,4 hPa 0,0 l/m 4,3 km/h (1 Bft) 0,00 h 0,00 h 5,6 km/h (1 Bft)
28.12.2010 11:00 9,8 C 0,6 C 0,3 UV-I 0,2 C 47 % 85 % 6 % 1019,9 hPa 0,0 l/m 2,6 km/h (1 Bft) 0,00 h 0,00 h 3,3 km/h (1 Bft)
28.12.2010 12:00 10,0 C 1,1 C 0,9 UV-I 0,3 C 47 % 84 % 8 % 1020,1 hPa 0,0 l/m 5,3 km/h (1 Bft) 0,00 h 0,00 h 6,3 km/h (2 Bft)
28.12.2010 13:00 10,2 C 1,4 C 0,8 UV-I 0,1 C 47 % 83 % 2 % 1020,1 hPa 0,0 l/m 6,6 km/h (2 Bft) 0,00 h 0,00 h 7,6 km/h (2 Bft)
28.12.2010 14:00 10,2 C 1,5 C 0,5 UV-I 0,0 C 47 % 83 % 0 % 1020,2 hPa 0,1 l/m 6,2 km/h (2 Bft) 0,00 h 0,00 h 6,3 km/h (2 Bft)
28.12.2010 15:00 10,2 C 1,4 C 0,1 UV-I 0,0 C 47 % 83 % 0 % 1020,3 hPa 0,2 l/m 2,4 km/h (1 Bft) 0,00 h 0,00 h 4,2 km/h (1 Bft)
28.12.2010 16:00 10,2 C 1,2 C 0,0 UV-I 0,0 C 47 % 83 % 0 % 1020,7 hPa 0,0 l/m 2,9 km/h (1 Bft) 0,00 h 0,00 h 3,7 km/h (1 Bft)
28.12.2010 17:00 10,1 C 1,1 C 0,0 UV-I 0,0 C 48 % 84 % 0 % 1020,9 hPa 0,0 l/m 4,0 km/h (1 Bft) 0,00 h 0,00 h 5,1 km/h (1 Bft)
28.12.2010 18:00 9,9 C 0,9 C 0,0 UV-I 0,0 C 48 % 85 % 0 % 1020,8 hPa 0,0 l/m 5,9 km/h (2 Bft) 0,00 h 0,00 h 7,5 km/h (2 Bft)
28.12.2010 19:00 9,9 C 0,9 C 0,0 UV-I 0,0 C 48 % 86 % 0 % 1021,4 hPa 0,1 l/m 3,9 km/h (1 Bft) 0,00 h 0,00 h 5,3 km/h (1 Bft)
28.12.2010 20:00 9,9 C 0,8 C 0,0 UV-I 0,0 C 48 % 86 % 0 % 1021,6 hPa 0,0 l/m 5,6 km/h (1 Bft) 0,00 h 0,00 h 5,9 km/h (2 Bft)
28.12.2010 21:00 9,8 C 0,6 C 0,0 UV-I 0,0 C 48 % 86 % 0 % 1021,8 hPa 0,0 l/m 7,9 km/h (2 Bft) 0,00 h 0,00 h 8,8 km/h (2 Bft)
28.12.2010 22:00 9,6 C 0,6 C 0,0 UV-I 0,0 C 48 % 86 % 0 % 1021,8 hPa 0,0 l/m 8,3 km/h (2 Bft) 0,00 h 0,00 h 9,9 km/h (2 Bft)
28.12.2010 23:00 9,6 C 0,4 C 0,0 UV-I 0,0 C 48 % 86 % 0 % 1021,7 hPa 0,0 l/m 8,1 km/h (2 Bft) 0,00 h 0,00 h 9,6 km/h (2 Bft)
29.12.2010 00:00 9,6 C 0,1 C 0,0 UV-I 0,0 C 48 % 87 % 0 % 1021,9 hPa 0,0 l/m 7,4 km/h (2 Bft) 0,00 h 0,00 h 8,1 km/h (2 Bft)
29.12.2010 01:00 9,6 C 0,3 C 0,0 UV-I 0,0 C 48 % 87 % 0 % 1022,4 hPa 0,0 l/m 8,7 km/h (2 Bft) 0,00 h 0,00 h 9,4 km/h (2 Bft)
29.12.2010 02:00 9,6 C 0,3 C 0,0 UV-I 0,0 C 48 % 87 % 0 % 1022,4 hPa 0,0 l/m 7,3 km/h (2 Bft) 0,00 h 0,00 h 8,7 km/h (2 Bft)
29.12.2010 03:00 9,6 C -0,0 C 0,0 UV-I 0,0 C 48 % 87 % 0 % 1022,3 hPa 0,0 l/m 5,8 km/h (2 Bft) 0,00 h 0,00 h 5,9 km/h (2 Bft)
29.12.2010 04:00 9,6 C -0,5 C 0,0 UV-I 0,0 C 48 % 87 % 0 % 1022,2 hPa 0,0 l/m 5,4 km/h (1 Bft) 0,00 h 0,00 h 5,9 km/h (2 Bft)
29.12.2010 05:00 9,6 C -0,4 C 0,0 UV-I 0,0 C 48 % 88 % 0 % 1022,0 hPa 0,0 l/m 4,7 km/h (1 Bft) 0,00 h 0,00 h 6,4 km/h (2 Bft)
29.12.2010 06:00 9,6 C 0,1 C 0,0 UV-I 0,0 C 48 % 89 % 0 % 1021,9 hPa 0,0 l/m 6,7 km/h (2 Bft) 0,00 h 0,00 h 7,6 km/h (2 Bft)
29.12.2010 07:00 9,6 C 0,4 C 0,0 UV-I 0,0 C 49 % 89 % 0 % 1022,2 hPa 0,0 l/m 3,8 km/h (1 Bft) 0,00 h 0,00 h 5,0 km/h (1 Bft)
29.12.2010 08:00 9,7 C 0,6 C 0,0 UV-I 0,0 C 49 % 89 % 0 % 1022,2 hPa 0,0 l/m 4,1 km/h (1 Bft) 0,00 h 0,00 h 5,6 km/h (1 Bft)
29.12.2010 09:00 9,9 C 0,8 C 0,0 UV-I 0,0 C 49 % 89 % 0 % 1023,3 hPa 0,0 l/m 2,7 km/h (1 Bft) 0,00 h 0,00 h 3,2 km/h (1 Bft)
29.12.2010 10:00 10,0 C 1,3 C 0,0 UV-I 0,0 C 49 % 89 % 1 % 1023,6 hPa 0,0 l/m 3,9 km/h (1 Bft) 0,00 h 0,00 h 4,2 km/h (1 Bft)
29.12.2010 11:00 10,3 C 1,9 C 0,5 UV-I 0,3 C 49 % 88 % 8 % 1023,8 hPa 0,0 l/m 4,5 km/h (1 Bft) 0,00 h 0,00 h 4,9 km/h (1 Bft)
29.12.2010 12:00 10,5 C 2,4 C 0,8 UV-I 0,7 C 49 % 87 % 19 % 1023,6 hPa 0,2 l/m 4,7 km/h (1 Bft) 0,00 h 0,00 h 4,3 km/h (1 Bft)
29.12.2010 13:00 10,7 C 2,6 C 0,7 UV-I 0,5 C 49 % 86 % 14 % 1023,6 hPa 0,5 l/m 4,3 km/h (1 Bft) 0,00 h 0,00 h 5,0 km/h (1 Bft)
29.12.2010 14:00 10,8 C 2,5 C 0,5 UV-I 0,1 C 49 % 86 % 3 % 1023,4 hPa 0,4 l/m 4,4 km/h (1 Bft) 0,00 h 0,00 h 4,8 km/h (1 Bft)
29.12.2010 15:00 10,8 C 2,4 C 0,2 UV-I 0,0 C 49 % 86 % 0 % 1023,5 hPa 0,4 l/m 1,5 km/h (1 Bft) 0,00 h 0,00 h 1,7 km/h (1 Bft)
29.12.2010 16:00 10,7 C 2,3 C 0,0 UV-I 0,0 C 49 % 86 % 0 % 1023,6 hPa 0,2 l/m 0,9 km/h (0 Bft) 0,00 h 0,00 h 1,4 km/h (1 Bft)
29.12.2010 17:00 10,6 C 2,0 C 0,0 UV-I 0,0 C 50 % 87 % 0 % 1024,2 hPa 0,2 l/m 0,2 km/h (0 Bft) 0,00 h 0,00 h 0,3 km/h (0 Bft)
29.12.2010 18:00 10,6 C 2,0 C 0,0 UV-I 0,0 C 50 % 88 % 0 % 1023,8 hPa 0,2 l/m 0,3 km/h (0 Bft) 0,00 h 0,00 h 0,6 km/h (0 Bft)
29.12.2010 19:00 10,6 C 1,9 C 0,0 UV-I 0,0 C 50 % 88 % 0 % 1024,1 hPa 0,1 l/m 0,7 km/h (0 Bft) 0,00 h 0,00 h 0,7 km/h (0 Bft)
29.12.2010 20:00 10,4 C 1,9 C 0,0 UV-I 0,0 C 51 % 89 % 0 % 1024,5 hPa 0,1 l/m 0,4 km/h (0 Bft) 0,00 h 0,00 h 0,5 km/h (0 Bft)
29.12.2010 21:00 10,5 C 1,9 C 0,0 UV-I 0,0 C 51 % 89 % 0 % 1024,9 hPa 0,2 l/m 0,6 km/h (0 Bft) 0,00 h 0,00 h 0,5 km/h (0 Bft)
29.12.2010 22:00 10,5 C 1,9 C 0,0 UV-I 0,0 C 51 % 89 % 0 % 1025,2 hPa 0,1 l/m 0,4 km/h (0 Bft) 0,00 h 0,00 h 0,7 km/h (0 Bft)
29.12.2010 23:00 10,6 C 1,8 C 0,0 UV-I 0,0 C 51 % 89 % 0 % 1025,4 hPa 0,1 l/m 0,2 km/h (0 Bft) 0,00 h 0,00 h 0,5 km/h (0 Bft)
30.12.2010 00:00 10,6 C 1,7 C 0,0 UV-I 0,0 C 51 % 90 % 0 % 1025,2 hPa 0,1 l/m 0,6 km/h (0 Bft) 0,00 h 0,00 h 0,7 km/h (0 Bft)
30.12.2010 01:00 10,6 C 1,6 C 0,0 UV-I 0,0 C 51 % 89 % 0 % 1025,2 hPa 0,1 l/m 0,8 km/h (0 Bft) 0,00 h 0,00 h 1,2 km/h (1 Bft)
30.12.2010 02:00 10,6 C 1,6 C 0,0 UV-I 0,0 C 51 % 89 % 0 % 1025,3 hPa 0,1 l/m 0,9 km/h (0 Bft) 0,00 h 0,00 h 0,9 km/h (0 Bft)
30.12.2010 03:00 10,6 C 1,6 C 0,0 UV-I 0,0 C 51 % 89 % 0 % 1025,6 hPa 0,1 l/m 0,4 km/h (0 Bft) 0,00 h 0,00 h 0,5 km/h (0 Bft)
30.12.2010 04:00 10,6 C 1,2 C 0,0 UV-I 0,0 C 51 % 90 % 0 % 1025,4 hPa 0,0 l/m 0,2 km/h (0 Bft) 0,00 h 0,00 h 0,4 km/h (0 Bft)
30.12.2010 05:00 10,5 C 0,3 C 0,0 UV-I 0,0 C 51 % 90 % 0 % 1025,5 hPa 0,1 l/m 0,0 km/h (0 Bft) 0,00 h 0,00 h 0,2 km/h (0 Bft)
30.12.2010 06:00 10,3 C -0,7 C 0,0 UV-I 0,0 C 50 % 90 % 0 % 1025,5 hPa 0,0 l/m 0,0 km/h (0 Bft) 0,00 h 0,00 h 0,0 km/h (0 Bft)
30.12.2010 07:00 10,2 C -1,6 C 0,0 UV-I 0,0 C 50 % 91 % 0 % 1025,9 hPa 0,0 l/m 0,0 km/h (0 Bft) 0,00 h 0,00 h 0,0 km/h (0 Bft)
30.12.2010 08:00 10,0 C -2,1 C 0,0 UV-I 0,0 C 50 % 92 % 0 % 1025,8 hPa 0,0 l/m 0,0 km/h (0 Bft) 0,00 h 0,00 h 0,0 km/h (0 Bft)
30.12.2010 09:00 9,9 C -2,3 C 0,0 UV-I 0,2 C 49 % 92 % 4 % 1025,8 hPa 0,0 l/m 0,0 km/h (0 Bft) 0,07 h 0,00 h 0,0 km/h (0 Bft)
30.12.2010 10:00 10,1 C -1,3 C 0,0 UV-I 5,7 C 49 % 93 % 98 % 1026,5 hPa 0,0 l/m 0,2 km/h (0 Bft) 1,00 h 0,00 h 0,3 km/h (0 Bft)
30.12.2010 11:00 10,2 C 0,7 C 0,0 UV-I 6,6 C 49 % 92 % 100 % 1027,1 hPa 0,0 l/m 2,6 km/h (1 Bft) 1,00 h 0,00 h 3,4 km/h (1 Bft)
30.12.2010 12:00 10,4 C 2,1 C 0,0 UV-I 5,7 C 49 % 89 % 100 % 1026,5 hPa 0,2 l/m 5,7 km/h (1 Bft) 1,00 h 0,00 h 6,7 km/h (2 Bft)
30.12.2010 13:00 10,7 C 3,1 C 0,1 UV-I 5,7 C 49 % 85 % 100 % 1026,3 hPa 0,1 l/m 2,7 km/h (1 Bft) 1,00 h 0,00 h 2,9 km/h (1 Bft)
30.12.2010 14:00 11,4 C 3,2 C 0,1 UV-I 5,0 C 48 % 81 % 99 % 1026,9 hPa 0,1 l/m 2,5 km/h (1 Bft) 1,00 h 0,00 h 3,4 km/h (1 Bft)
30.12.2010 15:00 11,5 C 2,3 C 0,0 UV-I 0,2 C 46 % 82 % 5 % 1026,4 hPa 0,0 l/m 2,2 km/h (1 Bft) 0,07 h 0,00 h 2,7 km/h (1 Bft)
30.12.2010 16:00 11,1 C 1,4 C 0,0 UV-I 0,0 C 47 % 83 % 0 % 1026,0 hPa 0,0 l/m 0,5 km/h (0 Bft) 0,00 h 0,00 h 0,5 km/h (0 Bft)
30.12.2010 17:00 10,7 C -0,4 C 0,0 UV-I 0,0 C 47 % 85 % 0 % 1026,1 hPa 0,0 l/m 0,0 km/h (0 Bft) 0,00 h 0,00 h 0,0 km/h (0 Bft)
30.12.2010 18:00 10,4 C -1,0 C 0,0 UV-I 0,0 C 48 % 87 % 0 % 1026,3 hPa 0,0 l/m 0,1 km/h (0 Bft) 0,00 h 0,00 h 0,3 km/h (0 Bft)
30.12.2010 19:00 10,2 C -1,2 C 0,0 UV-I 0,0 C 48 % 89 % 0 % 1026,4 hPa 0,0 l/m 1,4 km/h (1 Bft) 0,00 h 0,00 h 2,3 km/h (1 Bft)
30.12.2010 20:00 10,0 C -1,7 C 0,0 UV-I 0,0 C 48 % 90 % 0 % 1026,2 hPa 0,0 l/m 0,3 km/h (0 Bft) 0,00 h 0,00 h 0,4 km/h (0 Bft)
30.12.2010 21:00 10,0 C -2,1 C 0,0 UV-I 0,0 C 48 % 91 % 0 % 1026,1 hPa 0,0 l/m 0,6 km/h (0 Bft) 0,00 h 0,00 h 0,7 km/h (0 Bft)
30.12.2010 22:00 10,0 C -2,0 C 0,0 UV-I 0,0 C 48 % 91 % 0 % 1026,1 hPa 0,0 l/m 0,4 km/h (0 Bft) 0,00 h 0,00 h 0,4 km/h (0 Bft)
30.12.2010 23:00 10,0 C -1,8 C 0,0 UV-I 0,0 C 48 % 92 % 0 % 1026,5 hPa 0,0 l/m 0,0 km/h (0 Bft) 0,00 h 0,00 h 0,0 km/h (0 Bft)
31.12.2010 00:00 9,9 C -1,8 C 0,0 UV-I 0,0 C 48 % 92 % 0 % 1026,7 hPa 0,0 l/m 0,1 km/h (0 Bft) 0,00 h 0,00 h 0,1 km/h (0 Bft)
31.12.2010 01:00 9,9 C -1,0 C 0,0 UV-I 0,0 C 48 % 93 % 0 % 1026,7 hPa 0,0 l/m 0,2 km/h (0 Bft) 0,00 h 0,00 h 0,8 km/h (0 Bft)
31.12.2010 02:00 10,1 C -0,1 C 0,0 UV-I 0,0 C 49 % 93 % 0 % 1026,5 hPa 0,0 l/m 0,8 km/h (0 Bft) 0,00 h 0,00 h 1,2 km/h (1 Bft)
31.12.2010 03:00 10,2 C 0,1 C 0,0 UV-I 0,0 C 49 % 92 % 0 % 1026,2 hPa 0,0 l/m 0,2 km/h (0 Bft) 0,00 h 0,00 h 0,6 km/h (0 Bft)
31.12.2010 04:00 10,2 C -0,0 C 0,0 UV-I 0,0 C 49 % 92 % 0 % 1026,2 hPa 0,0 l/m 1,5 km/h (1 Bft) 0,00 h 0,00 h 2,7 km/h (1 Bft)
31.12.2010 05:00 10,1 C -0,1 C 0,0 UV-I 0,0 C 49 % 93 % 0 % 1026,1 hPa 0,0 l/m 3,3 km/h (1 Bft) 0,00 h 0,00 h 3,8 km/h (1 Bft)
31.12.2010 06:00 10,1 C -0,1 C 0,0 UV-I 0,0 C 49 % 93 % 0 % 1025,8 hPa 0,0 l/m 0,0 km/h (0 Bft) 0,00 h 0,00 h 0,0 km/h (0 Bft)
31.12.2010 07:00 10,1 C -0,1 C 0,0 UV-I 0,0 C 49 % 93 % 0 % 1025,8 hPa 0,0 l/m 1,5 km/h (1 Bft) 0,00 h 0,00 h 2,5 km/h (1 Bft)
31.12.2010 08:00 10,1 C -0,1 C 0,0 UV-I 0,0 C 49 % 93 % 0 % 1026,5 hPa 0,0 l/m 0,7 km/h (0 Bft) 0,00 h 0,00 h 0,6 km/h (0 Bft)
31.12.2010 09:00 10,1 C -0,0 C 0,0 UV-I 0,0 C 50 % 93 % 0 % 1026,8 hPa 0,0 l/m 0,5 km/h (0 Bft) 0,00 h 0,00 h 0,3 km/h (0 Bft)
31.12.2010 10:00 10,2 C 0,4 C 0,0 UV-I 0,0 C 50 % 93 % 0 % 1026,9 hPa 0,0 l/m 0,1 km/h (0 Bft) 0,00 h 0,00 h 0,1 km/h (0 Bft)
31.12.2010 11:00 10,3 C 0,8 C 0,0 UV-I 0,0 C 51 % 93 % 0 % 1027,0 hPa 0,0 l/m 0,1 km/h (0 Bft) 0,00 h 0,00 h 0,1 km/h (0 Bft)
31.12.2010 12:00 10,4 C 0,9 C 0,0 UV-I 0,0 C 51 % 93 % 0 % 1027,0 hPa 0,1 l/m 0,2 km/h (0 Bft) 0,00 h 0,00 h 0,5 km/h (0 Bft)
31.12.2010 13:00 10,3 C 1,0 C 0,2 UV-I 0,0 C 51 % 93 % 0 % 1027,0 hPa 0,0 l/m 0,3 km/h (0 Bft) 0,00 h 0,00 h 0,4 km/h (0 Bft)
31.12.2010 14:00 10,4 C 1,0 C 0,1 UV-I 0,0 C 52 % 93 % 0 % 1026,5 hPa 0,0 l/m 0,1 km/h (0 Bft) 0,00 h 0,00 h 0,3 km/h (0 Bft)
31.12.2010 15:00 10,4 C 1,1 C 0,0 UV-I 0,0 C 52 % 94 % 0 % 1026,4 hPa 0,0 l/m 0,2 km/h (0 Bft) 0,00 h 0,00 h 0,3 km/h (0 Bft)
31.12.2010 16:00 10,4 C 1,1 C 0,0 UV-I 0,0 C 52 % 94 % 0 % 1026,2 hPa 0,0 l/m 0,0 km/h (0 Bft) 0,00 h 0,00 h 0,0 km/h (0 Bft)
31.12.2010 17:00 10,3 C 1,1 C 0,0 UV-I 0,0 C 53 % 94 % 0 % 1026,6 hPa 0,0 l/m 0,1 km/h (0 Bft) 0,00 h 0,00 h 0,1 km/h (0 Bft)
31.12.2010 18:00 10,3 C 1,1 C 0,0 UV-I 0,0 C 53 % 94 % 0 % 1026,7 hPa 0,0 l/m 0,0 km/h (0 Bft) 0,00 h 0,00 h 0,0 km/h (0 Bft)
31.12.2010 19:00 10,3 C 1,1 C 0,0 UV-I 0,0 C 53 % 94 % 0 % 1026,3 hPa 0,0 l/m 0,0 km/h (0 Bft) 0,00 h 0,00 h 0,0 km/h (0 Bft)
31.12.2010 20:00 10,3 C 1,2 C 0,0 UV-I 0,0 C 53 % 94 % 0 % 1026,3 hPa 0,0 l/m 0,0 km/h (0 Bft) 0,00 h 0,00 h 0,1 km/h (0 Bft)
31.12.2010 21:00 10,3 C 1,2 C 0,0 UV-I 0,0 C 54 % 95 % 0 % 1026,4 hPa 0,0 l/m 0,3 km/h (0 Bft) 0,00 h 0,00 h 0,5 km/h (0 Bft)
31.12.2010 22:00 10,3 C 1,2 C 0,0 UV-I 0,0 C 54 % 95 % 0 % 1025,5 hPa 0,0 l/m 0,1 km/h (0 Bft) 0,00 h 0,00 h 0,2 km/h (0 Bft)
31.12.2010 23:00 10,3 C 1,2 C 0,0 UV-I 0,0 C 54 % 95 % 0 % 1025,2 hPa 0,0 l/m 0,2 km/h (0 Bft) 0,00 h 0,00 h 0,3 km/h (0 Bft)
01.01.2011 00:00 10,3 C 1,3 C 0,0 UV-I 0,0 C 54 % 95 % 0 % 1024,7 hPa 0,0 l/m 0,3 km/h (0 Bft) 0,00 h 0,00 h 0,8 km/h (0 Bft)
01.01.2011 01:00 10,3 C 1,4 C 0,0 UV-I 0,0 C 54 % 95 % 0 % 1024,2 hPa 0,0 l/m 1,0 km/h (0 Bft) 0,00 h 0,00 h 1,8 km/h (1 Bft)
01.01.2011 02:00 10,4 C 1,5 C 0,0 UV-I 0,0 C 54 % 95 % 0 % 1023,5 hPa 0,0 l/m 1,2 km/h (1 Bft) 0,00 h 0,00 h 2,6 km/h (1 Bft)
01.01.2011 03:00 10,3 C 1,6 C 0,0 UV-I 0,0 C 54 % 95 % 0 % 1023,1 hPa 0,0 l/m 2,3 km/h (1 Bft) 0,00 h 0,00 h 3,9 km/h (1 Bft)
01.01.2011 04:00 10,3 C 1,8 C 0,0 UV-I 0,0 C 54 % 95 % 0 % 1022,8 hPa 0,0 l/m 3,9 km/h (1 Bft) 0,00 h 0,00 h 5,6 km/h (1 Bft)
01.01.2011 05:00 10,4 C 1,9 C 0,0 UV-I 0,0 C 55 % 95 % 0 % 1022,3 hPa 0,0 l/m 3,0 km/h (1 Bft) 0,00 h 0,00 h 4,1 km/h (1 Bft)
01.01.2011 06:00 10,3 C 2,0 C 0,0 UV-I 0,0 C 55 % 95 % 0 % 1022,1 hPa 0,0 l/m 2,3 km/h (1 Bft) 0,00 h 0,00 h 3,4 km/h (1 Bft)
01.01.2011 07:00 10,4 C 2,0 C 0,0 UV-I 0,0 C 55 % 95 % 0 % 1021,7 hPa 0,0 l/m 2,9 km/h (1 Bft) 0,00 h 0,00 h 4,5 km/h (1 Bft)
01.01.2011 08:00 10,4 C 2,2 C 0,0 UV-I 0,0 C 55 % 96 % 0 % 1021,7 hPa 0,0 l/m 4,3 km/h (1 Bft) 0,00 h 0,00 h 5,7 km/h (1 Bft)
01.01.2011 09:00 10,3 C 2,3 C 0,0 UV-I 0,0 C 56 % 96 % 0 % 1021,7 hPa 0,1 l/m 4,7 km/h (1 Bft) 0,00 h 0,00 h 5,5 km/h (1 Bft)
01.01.2011 10:00 10,4 C 2,5 C 0,0 UV-I 0,0 C 56 % 95 % 0 % 1021,5 hPa 0,3 l/m 5,1 km/h (1 Bft) 0,00 h 0,00 h 5,3 km/h (1 Bft)
01.01.2011 11:00 10,5 C 2,8 C 0,0 UV-I 0,0 C 56 % 95 % 0 % 1021,5 hPa 0,4 l/m 5,0 km/h (1 Bft) 0,00 h 0,00 h 5,6 km/h (1 Bft)
01.01.2011 12:00 10,6 C 2,9 C 0,1 UV-I 0,0 C 56 % 95 % 0 % 1021,4 hPa 0,3 l/m 5,5 km/h (1 Bft) 0,00 h 0,00 h 7,0 km/h (2 Bft)
01.01.2011 13:00 10,7 C 2,9 C 0,0 UV-I 0,0 C 57 % 95 % 0 % 1020,8 hPa 0,5 l/m 3,5 km/h (1 Bft) 0,00 h 0,00 h 5,6 km/h (1 Bft)
01.01.2011 14:00 10,8 C 3,1 C 0,0 UV-I 0,0 C 57 % 95 % 0 % 1020,7 hPa 0,2 l/m 2,0 km/h (1 Bft) 0,00 h 0,00 h 2,5 km/h (1 Bft)
01.01.2011 15:00 10,8 C 3,2 C 0,0 UV-I 0,0 C 57 % 95 % 0 % 1020,8 hPa 0,3 l/m 2,9 km/h (1 Bft) 0,00 h 0,00 h 3,0 km/h (1 Bft)
01.01.2011 16:00 10,8 C 3,0 C 0,0 UV-I 0,0 C 57 % 95 % 0 % 1021,0 hPa 0,1 l/m 0,9 km/h (0 Bft) 0,00 h 0,00 h 1,1 km/h (1 Bft)
01.01.2011 17:00 10,8 C 2,7 C 0,0 UV-I 0,0 C 57 % 95 % 0 % 1021,5 hPa 0,1 l/m 0,2 km/h (0 Bft) 0,00 h 0,00 h 0,1 km/h (0 Bft)
01.01.2011 18:00 10,8 C 2,4 C 0,0 UV-I 0,0 C 57 % 95 % 0 % 1021,7 hPa 0,0 l/m 0,0 km/h (0 Bft) 0,00 h 0,00 h 0,1 km/h (0 Bft)
01.01.2011 19:00 10,7 C 1,8 C 0,0 UV-I 0,0 C 57 % 95 % 0 % 1022,0 hPa 0,0 l/m 0,0 km/h (0 Bft) 0,00 h 0,00 h 0,1 km/h (0 Bft)
01.01.2011 20:00 10,7 C 1,7 C 0,0 UV-I 0,0 C 56 % 96 % 0 % 1022,2 hPa 0,0 l/m 0,1 km/h (0 Bft) 0,00 h 0,00 h 0,0 km/h (0 Bft)
01.01.2011 21:00 10,7 C 1,2 C 0,0 UV-I 0,0 C 56 % 95 % 0 % 1022,3 hPa 0,0 l/m 0,0 km/h (0 Bft) 0,00 h 0,00 h 0,0 km/h (0 Bft)
01.01.2011 22:00 10,6 C 0,4 C 0,0 UV-I 0,0 C 55 % 95 % 0 % 1022,6 hPa 0,0 l/m 0,0 km/h (0 Bft) 0,00 h 0,00 h 0,0 km/h (0 Bft)
01.01.2011 23:00 10,5 C 0,2 C 0,0 UV-I 0,0 C 55 % 95 % 0 % 1022,7 hPa 0,0 l/m 0,0 km/h (0 Bft) 0,00 h 0,00 h 0,0 km/h (0 Bft)
02.01.2011 00:00 10,4 C -0,1 C 0,0 UV-I 0,0 C 55 % 95 % 0 % 1023,0 hPa 0,0 l/m 0,0 km/h (0 Bft) 0,00 h 0,00 h 0,0 km/h (0 Bft)
02.01.2011 01:00 10,4 C -0,4 C 0,0 UV-I 0,0 C 54 % 95 % 0 % 1022,9 hPa 0,0 l/m 0,0 km/h (0 Bft) 0,00 h 0,00 h 0,0 km/h (0 Bft)
02.01.2011 02:00 10,3 C -0,0 C 0,0 UV-I 0,0 C 54 % 96 % 0 % 1022,7 hPa 0,0 l/m 0,3 km/h (0 Bft) 0,00 h 0,00 h 0,9 km/h (0 Bft)
02.01.2011 03:00 10,4 C 0,0 C 0,0 UV-I 0,0 C 54 % 96 % 0 % 1023,1 hPa 0,0 l/m 0,0 km/h (0 Bft) 0,00 h 0,00 h 0,0 km/h (0 Bft)
02.01.2011 04:00 10,4 C -0,7 C 0,0 UV-I 0,0 C 53 % 95 % 0 % 1023,1 hPa 0,0 l/m 0,0 km/h (0 Bft) 0,00 h 0,00 h 0,0 km/h (0 Bft)
02.01.2011 05:00 10,4 C -0,6 C 0,0 UV-I 0,0 C 53 % 96 % 0 % 1022,9 hPa 0,0 l/m 0,8 km/h (0 Bft) 0,00 h 0,00 h 1,3 km/h (1 Bft)
02.01.2011 06:00 10,3 C -0,6 C 0,0 UV-I 0,0 C 53 % 95 % 0 % 1023,0 hPa 0,0 l/m 1,1 km/h (0 Bft) 0,00 h 0,00 h 1,4 km/h (1 Bft)
02.01.2011 07:00 10,3 C -0,2 C 0,0 UV-I 0,0 C 52 % 95 % 0 % 1023,2 hPa 0,0 l/m 1,9 km/h (1 Bft) 0,00 h 0,00 h 3,0 km/h (1 Bft)
02.01.2011 08:00 10,3 C 0,2 C 0,0 UV-I 0,0 C 52 % 95 % 0 % 1023,5 hPa 0,0 l/m 1,1 km/h (1 Bft) 0,00 h 0,00 h 1,4 km/h (1 Bft)
02.01.2011 09:00 10,3 C -0,0 C 0,0 UV-I 0,0 C 52 % 94 % 0 % 1024,0 hPa 0,0 l/m 2,0 km/h (1 Bft) 0,00 h 0,00 h 3,1 km/h (1 Bft)
02.01.2011 10:00 10,4 C 0,8 C 0,0 UV-I 0,0 C 52 % 95 % 0 % 1024,4 hPa 0,0 l/m 3,0 km/h (1 Bft) 0,00 h 0,00 h 4,0 km/h (1 Bft)
02.01.2011 11:00 10,6 C 1,5 C 0,0 UV-I 0,3 C 52 % 94 % 10 % 1024,9 hPa 0,1 l/m 2,3 km/h (1 Bft) 0,00 h 0,00 h 4,1 km/h (1 Bft)
02.01.2011 12:00 10,8 C 2,2 C 0,5 UV-I 2,2 C 52 % 94 % 59 % 1024,9 hPa 0,0 l/m 3,5 km/h (1 Bft) 0,40 h 0,00 h 5,1 km/h (1 Bft)
02.01.2011 13:00 11,1 C 2,4 C 1,0 UV-I 1,0 C 52 % 93 % 30 % 1024,9 hPa 0,0 l/m 2,9 km/h (1 Bft) 0,00 h 0,00 h 3,7 km/h (1 Bft)
02.01.2011 14:00 11,4 C 2,8 C 0,6 UV-I 3,0 C 52 % 92 % 66 % 1025,4 hPa 0,0 l/m 3,5 km/h (1 Bft) 0,60 h 0,00 h 4,2 km/h (1 Bft)
02.01.2011 15:00 11,6 C 2,5 C 0,0 UV-I 0,3 C 51 % 92 % 10 % 1025,3 hPa 0,1 l/m 2,7 km/h (1 Bft) 0,10 h 0,00 h 3,1 km/h (1 Bft)
02.01.2011 16:00 11,2 C 1,5 C 0,0 UV-I 0,0 C 51 % 92 % 0 % 1024,9 hPa 0,0 l/m 0,8 km/h (0 Bft) 0,00 h 0,00 h 1,2 km/h (1 Bft)
02.01.2011 17:00 10,9 C 0,9 C 0,0 UV-I 0,0 C 52 % 93 % 0 % 1024,8 hPa 0,0 l/m 0,5 km/h (0 Bft) 0,00 h 0,00 h 0,7 km/h (0 Bft)
02.01.2011 18:00 10,6 C 1,1 C 0,0 UV-I 0,0 C 52 % 93 % 0 % 1024,8 hPa 0,0 l/m 1,3 km/h (1 Bft) 0,00 h 0,00 h 2,4 km/h (1 Bft)
02.01.2011 19:00 10,6 C 1,3 C 0,0 UV-I 0,0 C 53 % 94 % 0 % 1025,1 hPa 0,0 l/m 0,7 km/h (0 Bft) 0,00 h 0,00 h 0,9 km/h (0 Bft)
02.01.2011 20:00 10,6 C 1,2 C 0,0 UV-I 0,0 C 53 % 93 % 0 % 1025,1 hPa 0,0 l/m 1,7 km/h (1 Bft) 0,00 h 0,00 h 2,3 km/h (1 Bft)
02.01.2011 21:00 10,6 C 1,1 C 0,0 UV-I 0,0 C 52 % 93 % 0 % 1025,2 hPa 0,0 l/m 1,4 km/h (1 Bft) 0,00 h 0,00 h 2,2 km/h (1 Bft)
02.01.2011 22:00 10,6 C 1,2 C 0,0 UV-I 0,0 C 52 % 93 % 0 % 1025,3 hPa 0,0 l/m 2,6 km/h (1 Bft) 0,00 h 0,00 h 3,5 km/h (1 Bft)
02.01.2011 23:00 10,6 C 1,1 C 0,0 UV-I 0,0 C 52 % 93 % 0 % 1025,5 hPa 0,0 l/m 2,6 km/h (1 Bft) 0,00 h 0,00 h 3,0 km/h (1 Bft)
Min-Datum _ 27.12.10 30.12.10 27.12.10 27.12.10 30.12.10 30.12.10 27.12.10 28.12.10 - 27.12.10 - - 27.12.10
_ Min-Zeit 00:00 09:14 00:00 00:00 15:00 14:30 00:00 06:46 - 09:00 - - 01:02
Minimum _ 9,1 C -2,5 C 0,0 UV-I 0,0 C 46 % 80 % 0 % 1018,1 hPa - 0,0 km/h (0 Bft) - - 0,0 km/h (0 Bft)
Max-Datum _ 30.12.10 30.12.10 02.01.11 30.12.10 01.01.11 01.01.11 30.12.10 30.12.10 29.12.10 28.12.10 30.12.10 27.12.10 28.12.10
_ Max-Zeit 14:46 14:06 13:10 11:26 15:56 07:32 10:06 11:26 13:04 21:36 09:56 00:00 18:52
Maximum _ 11,7 C 3,6 C 1,1 UV-I 7,4 C 58 % 96 % 100 % 1027,2 hPa 0,5 l/m 11,6 km/h
O-NO (2 Bft)
0,03 h 0,00 h 24,1 km/h
NO (4 Bft)
Durchschnitt _ 10,2 C 0,8 C 0,1 UV-I 0,2 C 51 % 91 % 5 % 1023,6 hPa #7,0 l/m 2,7 km/h (1 Bft) #6:14 h #0 min. 3,3 km/h (1 Bft)
© 2012 W. Hausmann